createdAt,value
2024-01-24T00:02:16.000Z,14.43
2024-01-24T00:04:42.933Z,14.69
2024-01-24T00:07:09.783Z,14.50
2024-01-24T00:09:36.846Z,14.50
2024-01-24T00:12:03.974Z,14.60
2024-01-24T00:14:31.025Z,14.47
2024-01-24T00:16:57.828Z,14.77
2024-01-24T00:19:38.866Z,14.54
2024-01-24T00:22:06.255Z,14.57
2024-01-24T00:24:33.654Z,14.68
2024-01-24T00:27:00.644Z,14.62
2024-01-24T00:29:27.315Z,14.56
2024-01-24T00:31:56.847Z,14.41
2024-01-24T00:34:24.184Z,14.54
2024-01-24T00:36:51.438Z,14.35
2024-01-24T00:39:18.505Z,14.68
2024-01-24T00:41:45.437Z,14.65
2024-01-24T00:44:12.284Z,15.17
2024-01-24T00:46:39.114Z,15.18
2024-01-24T00:49:10.085Z,14.95
2024-01-24T00:51:37.688Z,14.51
2024-01-24T00:54:04.711Z,14.81
2024-01-24T00:56:31.622Z,14.66
2024-01-24T00:58:58.412Z,14.53
2024-01-24T01:01:25.316Z,14.99
2024-01-24T01:03:52.202Z,15.01
2024-01-24T01:06:19.138Z,14.84
2024-01-24T01:08:46.557Z,14.61
2024-01-24T01:11:13.507Z,14.57
2024-01-24T01:13:40.296Z,14.75
2024-01-24T01:16:07.451Z,14.62
2024-01-24T01:18:34.318Z,14.31
2024-01-24T01:21:01.261Z,14.80
2024-01-24T01:23:28.205Z,14.48
2024-01-24T01:25:55.219Z,14.93
2024-01-24T01:28:22.133Z,14.54
2024-01-24T01:30:49.125Z,14.36
2024-01-24T01:33:16.213Z,14.73
2024-01-24T01:35:45.846Z,14.70
2024-01-24T01:38:15.141Z,14.41
2024-01-24T01:40:42.274Z,14.27
2024-01-24T01:43:14.779Z,14.34
2024-01-24T01:45:44.751Z,14.15
2024-01-24T01:48:12.596Z,14.37
2024-01-24T01:50:39.789Z,14.48
2024-01-24T01:53:07.436Z,14.47
2024-01-24T01:55:35.469Z,14.27
2024-01-24T01:58:02.891Z,14.33
2024-01-24T02:00:29.796Z,14.10
2024-01-24T02:02:56.951Z,14.17
2024-01-24T02:05:24.313Z,14.34
2024-01-24T02:07:51.911Z,14.57
2024-01-24T02:10:18.847Z,14.16
2024-01-24T02:12:45.737Z,14.24
2024-01-24T02:15:12.927Z,13.89
2024-01-24T02:17:40.091Z,14.06
2024-01-24T02:20:11.106Z,14.06
2024-01-24T02:22:38.272Z,14.24
2024-01-24T02:25:06.158Z,14.36
2024-01-24T02:27:33.171Z,14.12
2024-01-24T02:30:00.269Z,14.12
2024-01-24T02:32:27.204Z,14.08
2024-01-24T02:34:54.121Z,13.99
2024-01-24T02:37:21.997Z,13.76
2024-01-24T02:39:49.036Z,13.92
2024-01-24T02:42:16.198Z,13.86
2024-01-24T02:44:43.125Z,13.70
2024-01-24T02:47:10.802Z,13.82
2024-01-24T02:49:37.818Z,14.16
2024-01-24T02:52:05.091Z,13.95
2024-01-24T02:54:32.205Z,14.21
2024-01-24T02:56:59.188Z,13.84
2024-01-24T02:59:26.962Z,13.63
2024-01-24T03:01:54.004Z,13.70
2024-01-24T03:04:21.237Z,13.67
2024-01-24T03:06:48.372Z,14.32
2024-01-24T03:09:15.476Z,13.77
2024-01-24T03:11:42.862Z,14.05
2024-01-24T03:14:10.701Z,14.24
2024-01-24T03:16:37.571Z,13.93
2024-01-24T03:19:06.785Z,13.95
2024-01-24T03:21:34.116Z,13.99
2024-01-24T03:24:01.466Z,14.26
2024-01-24T03:26:28.487Z,14.13
2024-01-24T03:28:55.424Z,14.72
2024-01-24T03:31:22.215Z,14.09
2024-01-24T03:33:49.165Z,14.31
2024-01-24T03:36:16.160Z,14.14
2024-01-24T03:38:45.802Z,14.20
2024-01-24T03:41:12.713Z,14.11
2024-01-24T03:43:40.812Z,14.07
2024-01-24T03:46:08.274Z,14.22
2024-01-24T03:48:35.094Z,14.33
2024-01-24T03:51:02.171Z,13.91
2024-01-24T03:53:28.961Z,13.79
2024-01-24T03:55:55.811Z,13.78
2024-01-24T03:58:23.022Z,14.38
2024-01-24T04:00:51.738Z,14.03
2024-01-24T04:03:18.664Z,14.34
2024-01-24T04:05:45.598Z,14.49
2024-01-24T04:08:12.311Z,14.25
2024-01-24T04:10:39.131Z,14.29
2024-01-24T04:13:05.854Z,14.38
2024-01-24T04:15:33.138Z,14.58
2024-01-24T04:18:00.477Z,14.31
2024-01-24T04:20:28.218Z,14.29
2024-01-24T04:22:55.012Z,13.82
2024-01-24T04:25:22.027Z,14.27
2024-01-24T04:27:48.943Z,13.81
2024-01-24T04:30:16.768Z,13.87
2024-01-24T04:32:43.852Z,14.46
2024-01-24T04:35:11.556Z,14.12
2024-01-24T04:37:38.326Z,14.36
2024-01-24T04:40:06.174Z,14.11
2024-01-24T04:42:32.980Z,13.74
2024-01-24T04:45:00.116Z,14.01
2024-01-24T04:47:27.078Z,14.20
2024-01-24T04:49:54.379Z,13.95
2024-01-24T04:52:21.392Z,14.00
2024-01-24T04:54:48.483Z,13.57
2024-01-24T04:57:15.660Z,13.56
2024-01-24T04:59:49.929Z,13.57
2024-01-24T05:02:23.409Z,13.90
2024-01-24T05:04:50.635Z,14.04
2024-01-24T05:07:17.831Z,13.88
2024-01-24T05:09:45.001Z,13.87
2024-01-24T05:12:12.246Z,14.06
2024-01-24T05:14:39.066Z,14.43
2024-01-24T05:17:06.167Z,13.86
2024-01-24T05:19:33.917Z,13.84
2024-01-24T05:22:01.273Z,14.08
2024-01-24T05:24:28.304Z,13.66
2024-01-24T05:26:56.875Z,13.61
2024-01-24T05:29:23.676Z,13.84
2024-01-24T05:31:50.576Z,13.63
2024-01-24T05:34:17.402Z,13.93
2024-01-24T05:36:44.527Z,13.35
2024-01-24T05:39:11.423Z,13.49
2024-01-24T05:41:38.286Z,13.56
2024-01-24T05:44:05.264Z,14.51
2024-01-24T05:46:32.306Z,14.65
2024-01-24T05:49:01.806Z,14.08
2024-01-24T05:51:29.233Z,14.21
2024-01-24T05:53:56.045Z,14.04
2024-01-24T05:56:22.900Z,13.68
2024-01-24T05:58:49.697Z,13.67
2024-01-24T06:01:16.792Z,14.50
2024-01-24T06:03:43.821Z,14.04
2024-01-24T06:06:10.949Z,14.16
2024-01-24T06:08:40.120Z,13.86
2024-01-24T06:11:07.269Z,14.05
2024-01-24T06:13:34.094Z,14.13
2024-01-24T06:16:01.145Z,13.43
2024-01-24T06:18:28.217Z,13.70
2024-01-24T06:20:55.130Z,13.79
2024-01-24T06:23:21.917Z,14.11
2024-01-24T06:25:48.956Z,13.65
2024-01-24T06:28:16.374Z,14.16
2024-01-24T06:30:43.213Z,13.41
2024-01-24T06:33:10.698Z,13.88
2024-01-24T06:35:37.861Z,13.94
2024-01-24T06:38:04.995Z,13.46
2024-01-24T06:40:32.330Z,13.29
2024-01-24T06:42:59.896Z,13.88
2024-01-24T06:45:27.299Z,13.75
2024-01-24T06:47:54.469Z,13.88
2024-01-24T06:50:21.388Z,13.82
2024-01-24T06:52:48.228Z,13.65
2024-01-24T06:55:17.667Z,13.61
2024-01-24T06:57:45.565Z,13.54
2024-01-24T07:00:13.538Z,13.69
2024-01-24T07:02:40.590Z,13.78
2024-01-24T07:05:08.360Z,13.71
2024-01-24T07:07:35.420Z,13.79
2024-01-24T07:10:02.397Z,13.56
2024-01-24T07:12:29.294Z,13.70
2024-01-24T07:14:56.826Z,13.50
2024-01-24T07:17:24.857Z,13.70
2024-01-24T07:19:52.754Z,13.81
2024-01-24T07:22:19.703Z,14.15
2024-01-24T07:24:46.899Z,13.46
2024-01-24T07:27:13.827Z,13.98
2024-01-24T07:29:40.652Z,13.36
2024-01-24T07:32:07.705Z,14.00
2024-01-24T07:34:34.871Z,14.27
2024-01-24T07:37:02.060Z,14.07
2024-01-24T07:39:30.012Z,13.55
2024-01-24T07:41:57.569Z,13.78
2024-01-24T07:44:24.907Z,13.80
2024-01-24T07:46:52.067Z,13.56
2024-01-24T07:49:19.549Z,13.92
2024-01-24T07:51:48.315Z,13.98
2024-01-24T07:54:20.372Z,13.45
2024-01-24T07:56:48.070Z,13.38
2024-01-24T07:59:17.684Z,13.63
2024-01-24T08:01:49.689Z,13.39
2024-01-24T08:04:19.005Z,13.16
2024-01-24T08:06:48.839Z,13.03
2024-01-24T08:09:16.206Z,13.50
2024-01-24T08:11:43.216Z,13.61
2024-01-24T08:14:10.868Z,13.06
2024-01-24T08:16:37.811Z,14.03
2024-01-24T08:19:04.879Z,13.17
2024-01-24T08:21:32.034Z,13.12
2024-01-24T08:23:59.189Z,13.20
2024-01-24T08:26:26.135Z,13.39
2024-01-24T08:28:53.972Z,13.78
2024-01-24T08:31:20.991Z,13.40
2024-01-24T08:33:51.547Z,13.00
2024-01-24T08:36:20.527Z,13.14
2024-01-24T08:38:47.540Z,13.23
2024-01-24T08:41:14.740Z,12.91
2024-01-24T08:43:42.360Z,13.18
2024-01-24T08:46:09.334Z,13.22
2024-01-24T08:48:36.443Z,13.20
2024-01-24T08:51:03.790Z,13.30
2024-01-24T08:53:30.800Z,13.69
2024-01-24T08:55:57.796Z,13.65
2024-01-24T08:58:24.641Z,13.25
2024-01-24T09:00:52.687Z,13.14
2024-01-24T09:03:20.652Z,13.53
2024-01-24T09:05:48.105Z,13.23
2024-01-24T09:08:16.519Z,13.39
2024-01-24T09:10:43.825Z,13.69
2024-01-24T09:13:11.081Z,13.90
2024-01-24T09:15:38.303Z,13.60
2024-01-24T09:18:05.663Z,13.23
2024-01-24T09:20:32.712Z,12.92
2024-01-24T09:22:59.701Z,13.63
2024-01-24T09:25:26.899Z,13.35
2024-01-24T09:27:55.235Z,14.01
2024-01-24T09:30:22.587Z,13.38
2024-01-24T09:32:49.644Z,14.38
2024-01-24T09:35:17.741Z,13.32
2024-01-24T09:37:50.222Z,14.00
2024-01-24T09:40:18.007Z,13.42
2024-01-24T09:42:45.779Z,13.55
2024-01-24T09:45:19.456Z,13.71
2024-01-24T09:47:50.836Z,13.78
2024-01-24T09:50:18.287Z,13.61
2024-01-24T09:52:47.523Z,13.88
2024-01-24T09:55:17.798Z,13.92
2024-01-24T09:57:46.020Z,13.33
2024-01-24T10:00:15.758Z,13.27
2024-01-24T10:02:47.251Z,13.54
2024-01-24T10:05:17.956Z,13.95
2024-01-24T10:07:45.150Z,13.42
2024-01-24T10:10:16.973Z,13.91
2024-01-24T10:12:44.595Z,13.33
2024-01-24T10:15:12.245Z,13.81
2024-01-24T10:17:43.580Z,13.84
2024-01-24T10:20:13.135Z,13.36
2024-01-24T10:22:40.866Z,13.64
2024-01-24T10:25:11.041Z,13.53
2024-01-24T10:27:39.720Z,13.61
2024-01-24T10:30:11.559Z,14.73
2024-01-24T10:32:39.112Z,14.36
2024-01-24T10:35:06.855Z,14.09
2024-01-24T10:37:34.422Z,13.94
2024-01-24T10:40:13.056Z,13.58
2024-01-24T10:42:42.404Z,14.12
2024-01-24T10:45:10.316Z,14.06
2024-01-24T10:47:37.709Z,14.06
2024-01-24T10:50:07.538Z,13.49
2024-01-24T10:52:35.087Z,14.52
2024-01-24T10:55:06.627Z,14.13
2024-01-24T10:57:36.653Z,14.32
2024-01-24T11:00:07.433Z,14.03
2024-01-24T11:02:35.413Z,14.53
2024-01-24T11:05:05.135Z,14.35
2024-01-24T11:07:39.368Z,14.46
2024-01-24T11:10:42.053Z,14.60
2024-01-24T11:13:09.659Z,13.77
2024-01-24T11:15:36.620Z,14.45
2024-01-24T11:18:20.788Z,14.46
2024-01-24T11:20:49.144Z,14.32
2024-01-24T11:24:03.983Z,14.51
2024-01-24T11:26:30.885Z,14.12
2024-01-24T11:29:17.753Z,14.14
2024-01-24T11:31:45.669Z,13.73
2024-01-24T11:34:13.526Z,13.80
2024-01-24T11:36:52.549Z,14.00
2024-01-24T11:39:32.012Z,14.12
2024-01-24T11:42:23.842Z,14.39
2024-01-24T11:44:51.596Z,14.41
2024-01-24T11:47:18.456Z,14.26
2024-01-24T11:49:52.451Z,14.03
2024-01-24T11:52:22.680Z,13.83
2024-01-24T11:54:56.109Z,14.12
2024-01-24T11:57:23.335Z,14.23
2024-01-24T11:59:50.259Z,13.76
2024-01-24T12:02:17.263Z,14.06
2024-01-24T12:04:44.285Z,14.06
2024-01-24T12:07:11.388Z,14.27
2024-01-24T12:09:38.235Z,14.14
2024-01-24T12:12:05.658Z,14.01
2024-01-24T12:14:32.880Z,14.30
2024-01-24T12:17:00.404Z,14.05
2024-01-24T12:19:33.232Z,14.76
2024-01-24T12:22:00.298Z,14.66
2024-01-24T12:24:30.493Z,14.31
2024-01-24T12:27:00.215Z,14.60
2024-01-24T12:29:28.900Z,14.53
2024-01-24T12:32:01.320Z,14.31
2024-01-24T12:34:31.757Z,14.52
2024-01-24T12:36:59.723Z,14.77
2024-01-24T12:39:33.266Z,14.76
2024-01-24T12:42:02.094Z,14.78
2024-01-24T12:44:30.310Z,14.58
2024-01-24T12:46:58.227Z,14.73
2024-01-24T12:49:26.118Z,15.24
2024-01-24T12:51:54.890Z,14.37
2024-01-24T12:54:23.015Z,14.51
2024-01-24T12:56:51.269Z,14.86
2024-01-24T12:59:19.326Z,13.98
2024-01-24T13:01:46.555Z,14.25
2024-01-24T13:04:13.890Z,13.97
2024-01-24T13:06:41.662Z,14.57
2024-01-24T13:09:09.819Z,14.79
2024-01-24T13:11:37.036Z,14.77
2024-01-24T13:14:04.694Z,14.88
2024-01-24T13:16:32.048Z,14.45
2024-01-24T13:18:59.066Z,14.55
2024-01-24T13:21:26.139Z,14.91
2024-01-24T13:23:53.218Z,14.67
2024-01-24T13:26:21.309Z,14.93
2024-01-24T13:28:48.200Z,15.03
2024-01-24T13:31:15.354Z,14.15
2024-01-24T13:33:45.376Z,14.14
2024-01-24T13:36:12.585Z,14.56
2024-01-24T13:38:40.561Z,15.12
2024-01-24T13:41:08.013Z,14.38
2024-01-24T13:43:35.081Z,14.28
2024-01-24T13:46:02.034Z,14.16
2024-01-24T13:48:29.227Z,15.05
2024-01-24T13:51:04.319Z,14.97
2024-01-24T13:53:31.772Z,13.96
2024-01-24T13:55:59.023Z,13.99
2024-01-24T13:58:27.105Z,14.69
2024-01-24T14:00:54.866Z,14.27
2024-01-24T14:03:22.253Z,14.21
2024-01-24T14:05:49.945Z,13.86
2024-01-24T14:08:19.999Z,14.69
2024-01-24T14:10:47.038Z,14.42
2024-01-24T14:13:16.268Z,13.90
2024-01-24T14:15:44.440Z,14.56
2024-01-24T14:18:13.199Z,14.86
2024-01-24T14:20:40.864Z,15.10
2024-01-24T14:23:08.457Z,14.87
2024-01-24T14:25:35.515Z,14.27
2024-01-24T14:28:02.631Z,13.70
2024-01-24T14:30:30.002Z,13.58
2024-01-24T14:32:57.549Z,13.67
2024-01-24T14:35:24.954Z,13.98
2024-01-24T14:37:52.092Z,14.19
2024-01-24T14:40:19.383Z,14.04
2024-01-24T14:42:46.400Z,14.31
2024-01-24T14:45:14.407Z,14.31
2024-01-24T14:47:42.211Z,14.23
2024-01-24T14:50:22.194Z,14.23
2024-01-24T14:52:50.597Z,13.80
2024-01-24T14:55:18.446Z,14.34
2024-01-24T14:57:45.711Z,14.28
2024-01-24T15:00:13.853Z,14.21
2024-01-24T15:02:40.940Z,13.93
2024-01-24T15:05:09.737Z,14.32
2024-01-24T15:07:40.109Z,13.64
2024-01-24T15:10:09.005Z,13.79
2024-01-24T15:12:37.896Z,14.25
2024-01-24T15:15:08.791Z,13.55
2024-01-24T15:17:36.049Z,13.84
2024-01-24T15:20:04.935Z,14.20
2024-01-24T15:22:33.173Z,13.75
2024-01-24T15:25:01.819Z,14.52
2024-01-24T15:27:29.409Z,14.11
2024-01-24T15:29:56.730Z,14.73
2024-01-24T15:32:23.748Z,14.41
2024-01-24T15:34:50.899Z,14.10
2024-01-24T15:37:18.639Z,14.38
2024-01-24T15:39:45.783Z,14.01
2024-01-24T15:42:13.900Z,14.21
2024-01-24T15:44:40.795Z,13.98
2024-01-24T15:47:09.147Z,13.45
2024-01-24T15:49:38.327Z,13.61
2024-01-24T15:52:06.063Z,13.58
2024-01-24T15:54:35.013Z,14.33
2024-01-24T15:57:02.832Z,13.20
2024-01-24T15:59:29.815Z,13.68
2024-01-24T16:01:57.017Z,13.97
2024-01-24T16:04:23.990Z,14.07
2024-01-24T16:06:51.194Z,14.35
2024-01-24T16:09:18.525Z,14.41
2024-01-24T16:11:45.493Z,14.48
2024-01-24T16:14:15.546Z,13.94
2024-01-24T16:16:45.788Z,13.96
2024-01-24T16:19:13.110Z,13.64
2024-01-24T16:21:44.695Z,13.59
2024-01-24T16:24:11.765Z,14.07
2024-01-24T16:26:38.689Z,13.88
2024-01-24T16:29:05.760Z,13.81
2024-01-24T16:31:32.814Z,13.73
2024-01-24T16:34:00.020Z,13.72
2024-01-24T16:36:27.615Z,14.35
2024-01-24T16:38:54.970Z,14.16
2024-01-24T16:41:21.896Z,13.56
2024-01-24T16:43:50.042Z,13.28
2024-01-24T16:46:20.690Z,13.54
2024-01-24T16:48:47.744Z,13.63
2024-01-24T16:51:14.720Z,13.44
2024-01-24T16:53:41.706Z,14.45
2024-01-24T16:56:11.558Z,13.79
2024-01-24T16:58:40.808Z,13.90
2024-01-24T17:01:07.958Z,14.10
2024-01-24T17:03:35.027Z,14.21
2024-01-24T17:06:08.603Z,13.65
2024-01-24T17:08:35.923Z,14.51
2024-01-24T17:11:03.406Z,14.13
2024-01-24T17:13:30.394Z,13.59
2024-01-24T17:15:57.570Z,13.90
2024-01-24T17:18:27.369Z,13.52
2024-01-24T17:20:55.154Z,13.98
2024-01-24T17:23:22.072Z,13.79
2024-01-24T17:25:49.539Z,14.35
2024-01-24T17:28:17.177Z,14.42
2024-01-24T17:30:44.685Z,13.40
2024-01-24T17:33:11.566Z,14.17
2024-01-24T17:35:38.749Z,14.05
2024-01-24T17:38:05.729Z,14.40
2024-01-24T17:40:32.513Z,13.88
2024-01-24T17:43:01.321Z,13.58
2024-01-24T17:45:28.294Z,13.39
2024-01-24T17:47:56.914Z,13.38
2024-01-24T17:50:24.080Z,13.29
2024-01-24T17:52:51.404Z,13.92
2024-01-24T17:55:28.637Z,13.38
2024-01-24T17:57:58.297Z,13.87
2024-01-24T18:00:25.395Z,13.64
2024-01-24T18:02:52.415Z,13.63
2024-01-24T18:05:19.940Z,13.43
2024-01-24T18:07:47.492Z,13.77
2024-01-24T18:10:14.600Z,13.80
2024-01-24T18:12:41.811Z,13.89
2024-01-24T18:15:09.034Z,13.87
2024-01-24T18:17:38.362Z,14.05
2024-01-24T18:20:07.130Z,13.96
2024-01-24T18:22:33.934Z,13.84
2024-01-24T18:25:00.946Z,13.55
2024-01-24T18:27:27.881Z,13.16
2024-01-24T18:29:54.766Z,13.72
2024-01-24T18:32:21.546Z,14.17
2024-01-24T18:34:49.069Z,13.79
2024-01-24T18:37:16.382Z,13.52
2024-01-24T18:39:43.562Z,13.69
2024-01-24T18:42:10.720Z,13.28
2024-01-24T18:44:41.358Z,12.95
2024-01-24T18:47:08.915Z,12.87
2024-01-24T18:49:36.443Z,13.09
2024-01-24T18:52:03.851Z,13.02
2024-01-24T18:54:31.007Z,12.79
2024-01-24T18:56:57.975Z,13.11
2024-01-24T18:59:25.289Z,13.09
2024-01-24T19:01:52.595Z,13.55
2024-01-24T19:04:19.962Z,13.64
2024-01-24T19:06:47.697Z,13.80
2024-01-24T19:09:14.993Z,13.44
2024-01-24T19:11:41.904Z,12.71
2024-01-24T19:14:08.932Z,13.32
2024-01-24T19:16:36.141Z,13.36
2024-01-24T19:19:03.693Z,13.08
2024-01-24T19:21:31.012Z,12.89
2024-01-24T19:23:58.806Z,12.79
2024-01-24T19:26:26.654Z,13.49
2024-01-24T19:28:53.611Z,13.62
2024-01-24T19:31:20.712Z,12.89
2024-01-24T19:33:52.396Z,13.01
2024-01-24T19:36:20.888Z,13.82
2024-01-24T19:38:48.253Z,13.73
2024-01-24T19:41:15.254Z,13.17
2024-01-24T19:43:42.261Z,13.15
2024-01-24T19:46:09.546Z,13.20
2024-01-24T19:48:36.557Z,13.20
2024-01-24T19:51:03.678Z,12.77
2024-01-24T19:53:33.883Z,13.11
2024-01-24T19:56:02.312Z,13.44
2024-01-24T19:58:29.836Z,13.13
2024-01-24T20:00:57.261Z,13.71
2024-01-24T20:03:24.298Z,13.35
2024-01-24T20:05:51.351Z,12.84
2024-01-24T20:08:18.561Z,12.68
2024-01-24T20:10:49.081Z,13.77
2024-01-24T20:13:16.710Z,13.72
2024-01-24T20:15:47.649Z,12.86
2024-01-24T20:18:19.207Z,13.52
2024-01-24T20:20:46.853Z,13.52
2024-01-24T20:23:13.739Z,12.69
2024-01-24T20:25:40.861Z,13.41
2024-01-24T20:28:07.786Z,12.88
2024-01-24T20:30:34.868Z,13.77
2024-01-24T20:33:05.065Z,12.93
2024-01-24T20:35:33.037Z,12.55
2024-01-24T20:38:00.459Z,12.80
2024-01-24T20:40:27.505Z,12.76
2024-01-24T20:42:54.625Z,12.43
2024-01-24T20:45:21.652Z,12.96
2024-01-24T20:47:50.614Z,12.83
2024-01-24T20:50:22.275Z,12.76
2024-01-24T20:52:51.095Z,12.89
2024-01-24T20:55:23.906Z,12.48
2024-01-24T20:57:51.824Z,12.44
2024-01-24T21:00:20.766Z,12.83
2024-01-24T21:02:48.001Z,13.21
2024-01-24T21:05:15.879Z,12.84
2024-01-24T21:07:43.021Z,12.36
2024-01-24T21:10:10.851Z,12.76
2024-01-24T21:12:38.131Z,12.39
2024-01-24T21:15:05.484Z,12.97
2024-01-24T21:17:33.676Z,12.96
2024-01-24T21:20:00.718Z,12.79
2024-01-24T21:22:30.809Z,12.65
2024-01-24T21:24:57.851Z,12.80
2024-01-24T21:27:24.784Z,12.67
2024-01-24T21:29:51.637Z,12.71
2024-01-24T21:32:18.354Z,13.39
2024-01-24T21:34:45.398Z,12.81
2024-01-24T21:40:28.292Z,12.52
2024-01-24T21:42:55.250Z,12.47
2024-01-24T21:45:22.604Z,12.65
2024-01-24T21:47:49.738Z,12.59
2024-01-24T21:50:17.273Z,12.53
2024-01-24T21:52:44.306Z,12.50
2024-01-24T21:55:11.169Z,12.25
2024-01-24T21:57:39.065Z,12.13
2024-01-24T22:00:07.627Z,12.62
2024-01-24T22:02:35.217Z,13.40
2024-01-24T22:05:02.169Z,12.84
2024-01-24T22:07:32.208Z,12.80
2024-01-24T22:09:59.279Z,12.31
2024-01-24T22:12:26.331Z,12.76
2024-01-24T22:14:53.424Z,12.84
2024-01-24T22:17:20.466Z,13.01
2024-01-24T22:19:47.554Z,13.30
2024-01-24T22:22:14.476Z,13.25
2024-01-24T22:24:41.323Z,13.39
2024-01-24T22:27:08.202Z,13.33
2024-01-24T22:29:35.176Z,13.56
2024-01-24T22:32:03.837Z,12.88
2024-01-24T22:34:30.946Z,12.49
2024-01-24T22:36:58.032Z,12.94
2024-01-24T22:39:24.812Z,12.39
2024-01-24T22:41:51.711Z,12.40
2024-01-24T22:44:20.394Z,12.34
2024-01-24T22:46:48.414Z,12.94
2024-01-24T22:49:15.713Z,12.49
2024-01-24T22:51:42.847Z,12.31
2024-01-24T22:54:09.966Z,12.54
2024-01-24T22:56:36.912Z,12.54
2024-01-24T22:59:03.725Z,12.71
2024-01-24T23:01:30.951Z,12.61
2024-01-24T23:04:09.852Z,13.09
2024-01-24T23:06:37.146Z,12.33
2024-01-24T23:09:05.364Z,12.43
2024-01-24T23:11:32.563Z,12.30
2024-01-24T23:13:59.567Z,12.70
2024-01-24T23:16:26.442Z,12.76
2024-01-24T23:18:55.551Z,12.89
2024-01-24T23:21:26.872Z,12.39
2024-01-24T23:23:53.948Z,13.10
2024-01-24T23:26:20.692Z,12.63
2024-01-24T23:28:48.249Z,12.65
2024-01-24T23:31:15.292Z,12.94
2024-01-24T23:33:42.375Z,13.24
2024-01-24T23:36:10.227Z,13.20
2024-01-24T23:38:37.099Z,13.70
2024-01-24T23:41:04.039Z,12.98
2024-01-24T23:43:30.962Z,13.17
2024-01-24T23:45:57.713Z,13.14
2024-01-24T23:48:25.026Z,13.04
2024-01-24T23:50:52.078Z,12.97
2024-01-24T23:53:19.229Z,12.89
2024-01-24T23:55:47.438Z,13.37
2024-01-24T23:58:14.537Z,12.49
